PWSweather.com
Personal Weather Stations
Station Observations
KNCGREEN1000
Bell Orchard Drive, Greensboro, NC 27455

Bell Orchard DriveGreensboro, NC 27455

Lat: 36.132, Lon: -79.8

Elevation: 876

Station Type: Acurite Atlas

Http://www.gilhutcheson.com

High Low Average
Temperature 55.0°F12.8°C 26.6°F-3.0°C 40.3°F4.6°C
Dew Point 27.3°F-2.6°C 16.0°F-8.9°C 22.2°F-5.4°C
Winds 6.0 mph 9.7 kmh Calm Calm 2.0 mph SE3.2 kmh SE
Wind Gusts -- -- --
Humidity 72% 30% 50%
Pressure 30.65 in1037.9 mb 30.51 in1033.2 mb -
Precipitation 0.00 in0.0 mm - -
Hour Temp Dew Point Humidity Winds Wind Gusts Pressure Precip Precip Rate Daily Precip Total
12:03 AM 27.9°F-2.3°C 16.0°F-8.9°C 61% 1.0 mph SSE1.6 kmh SSE -- 30.52 in1033.5 mb 0.00 in0.0 mm 0.00 in0.0 mm 0.00 in0.0 mm
12:08 AM 28.3°F-2.1°C 16.7°F-8.5°C 62% Calm Calm -- 30.52 in1033.5 mb 0.00 in0.0 mm 0.00 in0.0 mm 0.00 in0.0 mm
12:12 AM 28.4°F-2.0°C 16.9°F-8.4°C 62% Calm Calm -- 30.52 in1033.5 mb 0.00 in0.0 mm 0.00 in0.0 mm 0.00 in0.0 mm
12:18 AM 28.5°F-1.9°C 17.1°F-8.3°C 62% Calm Calm -- 30.52 in1033.5 mb 0.00 in0.0 mm 0.00 in0.0 mm 0.00 in0.0 mm
12:23 AM 28.7°F-1.8°C 16.9°F-8.4°C 61% Calm Calm -- 30.52 in1033.5 mb 0.00 in0.0 mm 0.00 in0.0 mm 0.00 in0.0 mm
12:27 AM 28.8°F-1.8°C 16.9°F-8.4°C 61% Calm Calm -- 30.52 in1033.5 mb 0.00 in0.0 mm 0.00 in0.0 mm 0.00 in0.0 mm
12:33 AM 28.7°F-1.8°C 16.9°F-8.4°C 61% Calm Calm -- 30.52 in1033.5 mb 0.00 in0.0 mm 0.00 in0.0 mm 0.00 in0.0 mm
12:38 AM 28.6°F-1.9°C 17.1°F-8.3°C 62% 1.0 mph SSE1.6 kmh SSE -- 30.52 in1033.5 mb 0.00 in0.0 mm 0.00 in0.0 mm 0.00 in0.0 mm
12:43 AM 28.7°F-1.8°C 17.2°F-8.2°C 62% 1.0 mph SSE1.6 kmh SSE -- 30.52 in1033.5 mb 0.00 in0.0 mm 0.00 in0.0 mm 0.00 in0.0 mm
12:47 AM 28.5°F-1.9°C 18.2°F-7.7°C 65% Calm Calm -- 30.52 in1033.5 mb 0.00 in0.0 mm 0.00 in0.0 mm 0.00 in0.0 mm
12:52 AM 28.4°F-2.0°C 18.4°F-7.6°C 66% Calm Calm -- 30.52 in1033.5 mb 0.00 in0.0 mm 0.00 in0.0 mm 0.00 in0.0 mm
12:58 AM 28.2°F-2.1°C 18.9°F-7.3°C 68% Calm Calm -- 30.51 in1033.2 mb 0.00 in0.0 mm 0.00 in0.0 mm 0.00 in0.0 mm
01:03 AM 28.1°F-2.2°C 18.7°F-7.4°C 68% Calm Calm -- 30.52 in1033.5 mb 0.00 in0.0 mm 0.00 in0.0 mm 0.00 in0.0 mm
01:08 AM 27.9°F-2.3°C 19.2°F-7.1°C 70% Calm Calm -- 30.51 in1033.2 mb 0.00 in0.0 mm 0.00 in0.0 mm 0.00 in0.0 mm
01:13 AM 27.7°F-2.4°C 19.1°F-7.2°C 70% Calm Calm -- 30.51 in1033.2 mb 0.00 in0.0 mm 0.00 in0.0 mm 0.00 in0.0 mm
01:17 AM 27.6°F-2.4°C 19.1°F-7.2°C 70% Calm Calm -- 30.51 in1033.2 mb 0.00 in0.0 mm 0.00 in0.0 mm 0.00 in0.0 mm
01:23 AM 27.4°F-2.6°C 19.0°F-7.2°C 71% Calm Calm -- 30.51 in1033.2 mb 0.00 in0.0 mm 0.00 in0.0 mm 0.00 in0.0 mm
01:28 AM 27.3°F-2.6°C 18.7°F-7.4°C 70% Calm Calm -- 30.52 in1033.5 mb 0.00 in0.0 mm 0.00 in0.0 mm 0.00 in0.0 mm
01:33 AM 27.3°F-2.6°C 18.7°F-7.4°C 70% Calm Calm -- 30.52 in1033.5 mb 0.00 in0.0 mm 0.00 in0.0 mm 0.00 in0.0 mm
01:38 AM 27.1°F-2.7°C 17.9°F-7.8°C 68% Calm Calm -- 30.52 in1033.5 mb 0.00 in0.0 mm 0.00 in0.0 mm 0.00 in0.0 mm
01:43 AM 27.1°F-2.7°C 18.2°F-7.7°C 69% Calm Calm -- 30.52 in1033.5 mb 0.00 in0.0 mm 0.00 in0.0 mm 0.00 in0.0 mm
01:48 AM 27.0°F-2.8°C 18.0°F-7.8°C 69% Calm Calm -- 30.52 in1033.5 mb 0.00 in0.0 mm 0.00 in0.0 mm 0.00 in0.0 mm
01:52 AM 26.8°F-2.9°C 17.9°F-7.8°C 69% Calm Calm -- 30.53 in1033.9 mb 0.00 in0.0 mm 0.00 in0.0 mm 0.00 in0.0 mm
01:58 AM 26.8°F-2.9°C 17.9°F-7.8°C 69% Calm Calm -- 30.53 in1033.9 mb 0.00 in0.0 mm 0.00 in0.0 mm 0.00 in0.0 mm
02:03 AM 26.7°F-2.9°C 18.2°F-7.7°C 70% Calm Calm -- 30.53 in1033.9 mb 0.00 in0.0 mm 0.00 in0.0 mm 0.00 in0.0 mm
02:07 AM 26.6°F-3.0°C 18.0°F-7.8°C 70% Calm Calm -- 30.53 in1033.9 mb 0.00 in0.0 mm 0.00 in0.0 mm 0.00 in0.0 mm
02:12 AM 26.6°F-3.0°C 18.7°F-7.4°C 72% Calm Calm -- 30.53 in1033.9 mb 0.00 in0.0 mm 0.00 in0.0 mm 0.00 in0.0 mm
02:18 AM 27.0°F-2.8°C 19.0°F-7.2°C 72% 1.0 mph SSE1.6 kmh SSE -- 30.53 in1033.9 mb 0.00 in0.0 mm 0.00 in0.0 mm 0.00 in0.0 mm
02:22 AM 27.5°F-2.5°C 18.5°F-7.5°C 69% Calm Calm -- 30.53 in1033.9 mb 0.00 in0.0 mm 0.00 in0.0 mm 0.00 in0.0 mm
02:28 AM 27.9°F-2.3°C 18.5°F-7.5°C 68% 1.0 mph S1.6 kmh S -- 30.53 in1033.9 mb 0.00 in0.0 mm 0.00 in0.0 mm 0.00 in0.0 mm
02:33 AM 27.9°F-2.3°C 18.5°F-7.5°C 68% 1.0 mph S1.6 kmh S -- 30.54 in1034.2 mb 0.00 in0.0 mm 0.00 in0.0 mm 0.00 in0.0 mm
02:37 AM 28.1°F-2.2°C 19.4°F-7.0°C 70% Calm Calm -- 30.54 in1034.2 mb 0.00 in0.0 mm 0.00 in0.0 mm 0.00 in0.0 mm
02:43 AM 28.1°F-2.2°C 19.1°F-7.2°C 69% Calm Calm -- 30.54 in1034.2 mb 0.00 in0.0 mm 0.00 in0.0 mm 0.00 in0.0 mm
02:47 AM 28.1°F-2.2°C 18.7°F-7.4°C 68% Calm Calm -- 30.54 in1034.2 mb 0.00 in0.0 mm 0.00 in0.0 mm 0.00 in0.0 mm
02:52 AM 28.1°F-2.2°C 18.4°F-7.6°C 67% Calm Calm -- 30.54 in1034.2 mb 0.00 in0.0 mm 0.00 in0.0 mm 0.00 in0.0 mm
02:58 AM 28.1°F-2.2°C 18.4°F-7.6°C 67% Calm Calm -- 30.54 in1034.2 mb 0.00 in0.0 mm 0.00 in0.0 mm 0.00 in0.0 mm
03:03 AM 28.1°F-2.2°C 18.4°F-7.6°C 67% Calm Calm -- 30.54 in1034.2 mb 0.00 in0.0 mm 0.00 in0.0 mm 0.00 in0.0 mm
03:07 AM 28.0°F-2.2°C 18.4°F-7.6°C 67% Calm Calm -- 30.54 in1034.2 mb 0.00 in0.0 mm 0.00 in0.0 mm 0.00 in0.0 mm
03:13 AM 27.9°F-2.3°C 17.8°F-7.9°C 66% 2.0 mph S3.2 kmh S -- 30.54 in1034.2 mb 0.00 in0.0 mm 0.00 in0.0 mm 0.00 in0.0 mm
03:18 AM 28.1°F-2.2°C 16.9°F-8.4°C 63% 1.0 mph SE1.6 kmh SE -- 30.54 in1034.2 mb 0.00 in0.0 mm 0.00 in0.0 mm 0.00 in0.0 mm
03:23 AM 28.6°F-1.9°C 17.1°F-8.3°C 62% 1.0 mph SW1.6 kmh SW -- 30.54 in1034.2 mb 0.00 in0.0 mm 0.00 in0.0 mm 0.00 in0.0 mm
03:28 AM 28.9°F-1.7°C 16.6°F-8.6°C 60% Calm Calm -- 30.54 in1034.2 mb 0.00 in0.0 mm 0.00 in0.0 mm 0.00 in0.0 mm
03:33 AM 29.2°F-1.6°C 16.4°F-8.7°C 59% Calm Calm -- 30.54 in1034.2 mb 0.00 in0.0 mm 0.00 in0.0 mm 0.00 in0.0 mm
03:38 AM 29.4°F-1.4°C 16.8°F-8.4°C 59% 1.0 mph S1.6 kmh S -- 30.54 in1034.2 mb 0.00 in0.0 mm 0.00 in0.0 mm 0.00 in0.0 mm
03:43 AM 29.5°F-1.4°C 16.8°F-8.4°C 59% Calm Calm -- 30.54 in1034.2 mb 0.00 in0.0 mm 0.00 in0.0 mm 0.00 in0.0 mm
03:47 AM 29.6°F-1.3°C 16.9°F-8.4°C 59% Calm Calm -- 30.54 in1034.2 mb 0.00 in0.0 mm 0.00 in0.0 mm 0.00 in0.0 mm
03:52 AM 29.9°F-1.2°C 17.1°F-8.3°C 59% 2.0 mph S3.2 kmh S -- 30.54 in1034.2 mb 0.00 in0.0 mm 0.00 in0.0 mm 0.00 in0.0 mm
03:58 AM 30.2°F-1.0°C 17.0°F-8.3°C 58% 2.0 mph E3.2 kmh E -- 30.53 in1033.9 mb 0.00 in0.0 mm 0.00 in0.0 mm 0.00 in0.0 mm
04:03 AM 30.7°F-0.7°C 17.1°F-8.3°C 57% 1.0 mph NE1.6 kmh NE -- 30.53 in1033.9 mb 0.00 in0.0 mm 0.00 in0.0 mm 0.00 in0.0 mm
04:07 AM 30.6°F-0.8°C 16.6°F-8.6°C 56% 2.0 mph WSW3.2 kmh WSW -- 30.53 in1033.9 mb 0.00 in0.0 mm 0.00 in0.0 mm 0.00 in0.0 mm
04:13 AM 30.8°F-0.7°C 16.7°F-8.5°C 56% 2.0 mph SSW3.2 kmh SSW -- 30.54 in1034.2 mb 0.00 in0.0 mm 0.00 in0.0 mm 0.00 in0.0 mm
04:17 AM 30.8°F-0.7°C 16.7°F-8.5°C 56% 1.0 mph SSW1.6 kmh SSW -- 30.54 in1034.2 mb 0.00 in0.0 mm 0.00 in0.0 mm 0.00 in0.0 mm
04:23 AM 30.8°F-0.7°C 16.7°F-8.5°C 56% Calm Calm -- 30.54 in1034.2 mb 0.00 in0.0 mm 0.00 in0.0 mm 0.00 in0.0 mm
04:27 AM 31.1°F-0.5°C 16.2°F-8.8°C 54% 2.0 mph S3.2 kmh S -- 30.54 in1034.2 mb 0.00 in0.0 mm 0.00 in0.0 mm 0.00 in0.0 mm
04:32 AM 31.3°F-0.4°C 16.4°F-8.7°C 54% 1.0 mph SE1.6 kmh SE -- 30.54 in1034.2 mb 0.00 in0.0 mm 0.00 in0.0 mm 0.00 in0.0 mm
04:38 AM 31.4°F-0.3°C 17.0°F-8.3°C 55% Calm Calm -- 30.54 in1034.2 mb 0.00 in0.0 mm 0.00 in0.0 mm 0.00 in0.0 mm
04:42 AM 31.2°F-0.4°C 17.2°F-8.2°C 56% 1.0 mph S1.6 kmh S -- 30.54 in1034.2 mb 0.00 in0.0 mm 0.00 in0.0 mm 0.00 in0.0 mm
04:47 AM 31.3°F-0.4°C 17.6°F-8.0°C 57% 1.0 mph S1.6 kmh S -- 30.54 in1034.2 mb 0.00 in0.0 mm 0.00 in0.0 mm 0.00 in0.0 mm
04:53 AM 31.3°F-0.4°C 17.2°F-8.2°C 56% 1.0 mph SSE1.6 kmh SSE -- 30.54 in1034.2 mb 0.00 in0.0 mm 0.00 in0.0 mm 0.00 in0.0 mm
04:57 AM 31.5°F-0.3°C 17.8°F-7.9°C 57% 1.0 mph SE1.6 kmh SE -- 30.54 in1034.2 mb 0.00 in0.0 mm 0.00 in0.0 mm 0.00 in0.0 mm
05:02 AM 31.6°F-0.2°C 18.0°F-7.8°C 57% 1.0 mph S1.6 kmh S -- 30.54 in1034.2 mb 0.00 in0.0 mm 0.00 in0.0 mm 0.00 in0.0 mm
05:08 AM 31.7°F-0.2°C 18.4°F-7.6°C 58% 2.0 mph SSW3.2 kmh SSW -- 30.54 in1034.2 mb 0.00 in0.0 mm 0.00 in0.0 mm 0.00 in0.0 mm
05:13 AM 31.8°F-0.1°C 19.0°F-7.2°C 59% 2.0 mph SW3.2 kmh SW -- 30.53 in1033.9 mb 0.00 in0.0 mm 0.00 in0.0 mm 0.00 in0.0 mm
05:18 AM 31.7°F-0.2°C 18.8°F-7.3°C 59% 1.0 mph SW1.6 kmh SW -- 30.54 in1034.2 mb 0.00 in0.0 mm 0.00 in0.0 mm 0.00 in0.0 mm
05:23 AM 31.6°F-0.2°C 18.8°F-7.3°C 59% Calm Calm -- 30.53 in1033.9 mb 0.00 in0.0 mm 0.00 in0.0 mm 0.00 in0.0 mm
05:28 AM 31.5°F-0.3°C 18.6°F-7.4°C 59% Calm Calm -- 30.53 in1033.9 mb 0.00 in0.0 mm 0.00 in0.0 mm 0.00 in0.0 mm
05:32 AM 31.4°F-0.3°C 18.6°F-7.4°C 59% 1.0 mph SSE1.6 kmh SSE -- 30.53 in1033.9 mb 0.00 in0.0 mm 0.00 in0.0 mm 0.00 in0.0 mm
05:38 AM 31.4°F-0.3°C 19.0°F-7.2°C 60% 2.0 mph SE3.2 kmh SE -- 30.53 in1033.9 mb 0.00 in0.0 mm 0.00 in0.0 mm 0.00 in0.0 mm
05:43 AM 31.2°F-0.4°C 18.8°F-7.3°C 60% Calm Calm -- 30.54 in1034.2 mb 0.00 in0.0 mm 0.00 in0.0 mm 0.00 in0.0 mm
05:47 AM 31.1°F-0.5°C 18.7°F-7.4°C 60% 1.0 mph SW1.6 kmh SW -- 30.54 in1034.2 mb 0.00 in0.0 mm 0.00 in0.0 mm 0.00 in0.0 mm
05:52 AM 31.1°F-0.5°C 18.3°F-7.6°C 59% 1.0 mph S1.6 kmh S -- 30.54 in1034.2 mb 0.00 in0.0 mm 0.00 in0.0 mm 0.00 in0.0 mm
05:58 AM 31.2°F-0.4°C 18.5°F-7.5°C 59% 1.0 mph S1.6 kmh S -- 30.54 in1034.2 mb 0.00 in0.0 mm 0.00 in0.0 mm 0.00 in0.0 mm
06:03 AM 31.3°F-0.4°C 18.5°F-7.5°C 59% 1.0 mph SSW1.6 kmh SSW -- 30.55 in1034.5 mb 0.00 in0.0 mm 0.00 in0.0 mm 0.00 in0.0 mm
06:08 AM 31.4°F-0.3°C 18.2°F-7.7°C 58% 4.0 mph SW6.4 kmh SW -- 30.55 in1034.5 mb 0.00 in0.0 mm 0.00 in0.0 mm 0.00 in0.0 mm
06:13 AM 31.8°F-0.1°C 19.0°F-7.2°C 59% 2.0 mph SSW3.2 kmh SSW -- 30.55 in1034.5 mb 0.00 in0.0 mm 0.00 in0.0 mm 0.00 in0.0 mm
06:18 AM 32.0°F0.0°C 18.7°F-7.4°C 58% 2.0 mph NE3.2 kmh NE -- 30.55 in1034.5 mb 0.00 in0.0 mm 0.00 in0.0 mm 0.00 in0.0 mm
06:23 AM 32.2°F0.1°C 18.5°F-7.5°C 57% 3.0 mph NW4.8 kmh NW -- 30.55 in1034.5 mb 0.00 in0.0 mm 0.00 in0.0 mm 0.00 in0.0 mm
06:28 AM 32.4°F0.2°C 18.2°F-7.7°C 56% 6.0 mph W9.7 kmh W -- 30.55 in1034.5 mb 0.00 in0.0 mm 0.00 in0.0 mm 0.00 in0.0 mm
06:32 AM 32.8°F0.4°C 18.2°F-7.7°C 55% 1.0 mph WSW1.6 kmh WSW -- 30.55 in1034.5 mb 0.00 in0.0 mm 0.00 in0.0 mm 0.00 in0.0 mm
06:37 AM 32.7°F0.4°C 17.7°F-7.9°C 54% 2.0 mph S3.2 kmh S -- 30.55 in1034.5 mb 0.00 in0.0 mm 0.00 in0.0 mm 0.00 in0.0 mm
06:43 AM 32.9°F0.5°C 18.3°F-7.6°C 55% 2.0 mph SSW3.2 kmh SSW -- 30.56 in1034.9 mb 0.00 in0.0 mm 0.00 in0.0 mm 0.00 in0.0 mm
06:48 AM 32.8°F0.4°C 17.7°F-7.9°C 54% 3.0 mph NNW4.8 kmh NNW -- 30.56 in1034.9 mb 0.00 in0.0 mm 0.00 in0.0 mm 0.00 in0.0 mm
06:52 AM 32.7°F0.4°C 18.6°F-7.4°C 56% 2.0 mph S3.2 kmh S -- 30.56 in1034.9 mb 0.00 in0.0 mm 0.00 in0.0 mm 0.00 in0.0 mm
06:58 AM 32.4°F0.2°C 17.8°F-7.9°C 55% 2.0 mph SSW3.2 kmh SSW -- 30.57 in1035.2 mb 0.00 in0.0 mm 0.00 in0.0 mm 0.00 in0.0 mm
07:02 AM 32.4°F0.2°C 18.2°F-7.7°C 56% 2.0 mph NW3.2 kmh NW -- 30.57 in1035.2 mb 0.00 in0.0 mm 0.00 in0.0 mm 0.00 in0.0 mm
07:07 AM 32.3°F0.2°C 18.2°F-7.7°C 56% 3.0 mph N4.8 kmh N -- 30.56 in1034.9 mb 0.00 in0.0 mm 0.00 in0.0 mm 0.00 in0.0 mm
07:12 AM 32.5°F0.3°C 18.4°F-7.6°C 56% 3.0 mph NNE4.8 kmh NNE -- 30.56 in1034.9 mb 0.00 in0.0 mm 0.00 in0.0 mm 0.00 in0.0 mm
07:17 AM 32.3°F0.2°C 18.7°F-7.4°C 57% 2.0 mph SSW3.2 kmh SSW -- 30.57 in1035.2 mb 0.00 in0.0 mm 0.00 in0.0 mm 0.00 in0.0 mm
07:23 AM 32.1°F0.1°C 18.5°F-7.5°C 57% Calm Calm -- 30.57 in1035.2 mb 0.00 in0.0 mm 0.00 in0.0 mm 0.00 in0.0 mm
07:27 AM 31.9°F-0.1°C 17.7°F-7.9°C 56% 1.0 mph SSW1.6 kmh SSW -- 30.57 in1035.2 mb 0.00 in0.0 mm 0.00 in0.0 mm 0.00 in0.0 mm
07:33 AM 31.6°F-0.2°C 18.4°F-7.6°C 58% Calm Calm -- 30.57 in1035.2 mb 0.00 in0.0 mm 0.00 in0.0 mm 0.00 in0.0 mm
07:38 AM 31.4°F-0.3°C 18.6°F-7.4°C 59% 1.0 mph ESE1.6 kmh ESE -- 30.57 in1035.2 mb 0.00 in0.0 mm 0.00 in0.0 mm 0.00 in0.0 mm
07:42 AM 31.1°F-0.5°C 18.7°F-7.4°C 60% 1.0 mph E1.6 kmh E -- 30.57 in1035.2 mb 0.00 in0.0 mm 0.00 in0.0 mm 0.00 in0.0 mm
07:47 AM 30.6°F-0.8°C 18.2°F-7.7°C 60% 1.0 mph WNW1.6 kmh WNW -- 30.57 in1035.2 mb 0.00 in0.0 mm 0.00 in0.0 mm 0.00 in0.0 mm
07:53 AM 30.3°F-0.9°C 18.4°F-7.6°C 61% Calm Calm -- 30.57 in1035.2 mb 0.00 in0.0 mm 0.00 in0.0 mm 0.00 in0.0 mm
07:58 AM 30.1°F-1.1°C 18.8°F-7.3°C 63% 2.0 mph WNW3.2 kmh WNW -- 30.57 in1035.2 mb 0.00 in0.0 mm 0.00 in0.0 mm 0.00 in0.0 mm
08:03 AM 30.1°F-1.1°C 19.2°F-7.1°C 64% 1.0 mph NNE1.6 kmh NNE -- 30.58 in1035.6 mb 0.00 in0.0 mm 0.00 in0.0 mm 0.00 in0.0 mm
08:08 AM 30.0°F-1.1°C 19.2°F-7.1°C 64% 1.0 mph SE1.6 kmh SE -- 30.58 in1035.6 mb 0.00 in0.0 mm 0.00 in0.0 mm 0.00 in0.0 mm
08:13 AM 30.1°F-1.1°C 18.8°F-7.3°C 63% Calm Calm -- 30.57 in1035.2 mb 0.00 in0.0 mm 0.00 in0.0 mm 0.00 in0.0 mm
08:18 AM 30.3°F-0.9°C 18.8°F-7.3°C 62% Calm Calm -- 30.57 in1035.2 mb 0.00 in0.0 mm 0.00 in0.0 mm 0.00 in0.0 mm
08:27 AM 31.1°F-0.5°C 18.7°F-7.4°C 60% Calm Calm -- 30.57 in1035.2 mb 0.00 in0.0 mm 0.00 in0.0 mm 0.00 in0.0 mm
08:33 AM 31.5°F-0.3°C 19.0°F-7.2°C 60% Calm Calm -- 30.58 in1035.6 mb 0.00 in0.0 mm 0.00 in0.0 mm 0.00 in0.0 mm
08:38 AM 32.2°F0.1°C 19.3°F-7.1°C 59% 1.0 mph WNW1.6 kmh WNW -- 30.58 in1035.6 mb 0.00 in0.0 mm 0.00 in0.0 mm 0.00 in0.0 mm
08:42 AM 32.9°F0.5°C 20.4°F-6.4°C 60% 2.0 mph ENE3.2 kmh ENE -- 30.58 in1035.6 mb 0.00 in0.0 mm 0.00 in0.0 mm 0.00 in0.0 mm
08:47 AM 33.2°F0.7°C 20.3°F-6.5°C 59% 2.0 mph N3.2 kmh N -- 30.59 in1035.9 mb 0.00 in0.0 mm 0.00 in0.0 mm 0.00 in0.0 mm
08:53 AM 33.6°F0.9°C 21.1°F-6.1°C 60% 1.0 mph SSW1.6 kmh SSW -- 30.58 in1035.6 mb 0.00 in0.0 mm 0.00 in0.0 mm 0.00 in0.0 mm
08:57 AM 34.0°F1.1°C 20.6°F-6.3°C 58% 3.0 mph NE4.8 kmh NE -- 30.58 in1035.6 mb 0.00 in0.0 mm 0.00 in0.0 mm 0.00 in0.0 mm
09:02 AM 34.7°F1.5°C 20.4°F-6.4°C 56% 2.0 mph ESE3.2 kmh ESE -- 30.58 in1035.6 mb 0.00 in0.0 mm 0.00 in0.0 mm 0.00 in0.0 mm
09:08 AM 35.4°F1.9°C 21.9°F-5.6°C 58% 2.0 mph N3.2 kmh N -- 30.58 in1035.6 mb 0.00 in0.0 mm 0.00 in0.0 mm 0.00 in0.0 mm
09:12 AM 35.8°F2.1°C 21.9°F-5.6°C 57% 2.0 mph E3.2 kmh E -- 30.58 in1035.6 mb 0.00 in0.0 mm 0.00 in0.0 mm 0.00 in0.0 mm
09:18 AM 36.4°F2.4°C 21.1°F-6.1°C 54% 4.0 mph NW6.4 kmh NW -- 30.59 in1035.9 mb 0.00 in0.0 mm 0.00 in0.0 mm 0.00 in0.0 mm
09:22 AM 37.2°F2.9°C 21.5°F-5.8°C 53% 3.0 mph SW4.8 kmh SW -- 30.59 in1035.9 mb 0.00 in0.0 mm 0.00 in0.0 mm 0.00 in0.0 mm
09:28 AM 37.8°F3.2°C 21.5°F-5.8°C 52% 3.0 mph SW4.8 kmh SW -- 30.59 in1035.9 mb 0.00 in0.0 mm 0.00 in0.0 mm 0.00 in0.0 mm
09:33 AM 38.5°F3.6°C 21.3°F-5.9°C 50% 2.0 mph NW3.2 kmh NW -- 30.59 in1035.9 mb 0.00 in0.0 mm 0.00 in0.0 mm 0.00 in0.0 mm
09:37 AM 39.7°F4.3°C 21.9°F-5.6°C 49% 4.0 mph WNW6.4 kmh WNW -- 30.59 in1035.9 mb 0.00 in0.0 mm 0.00 in0.0 mm 0.00 in0.0 mm
09:42 AM 40.1°F4.5°C 22.3°F-5.4°C 49% 3.0 mph NNE4.8 kmh NNE -- 30.59 in1035.9 mb 0.00 in0.0 mm 0.00 in0.0 mm 0.00 in0.0 mm
09:48 AM 40.6°F4.8°C 22.3°F-5.4°C 48% 2.0 mph N3.2 kmh N -- 30.59 in1035.9 mb 0.00 in0.0 mm 0.00 in0.0 mm 0.00 in0.0 mm
09:53 AM 41.2°F5.1°C 22.8°F-5.1°C 48% 3.0 mph N4.8 kmh N -- 30.59 in1035.9 mb 0.00 in0.0 mm 0.00 in0.0 mm 0.00 in0.0 mm
09:58 AM 41.6°F5.3°C 22.6°F-5.2°C 47% Calm Calm -- 30.59 in1035.9 mb 0.00 in0.0 mm 0.00 in0.0 mm 0.00 in0.0 mm
10:02 AM 42.1°F5.6°C 22.6°F-5.2°C 46% 2.0 mph NE3.2 kmh NE -- 30.60 in1036.2 mb 0.00 in0.0 mm 0.00 in0.0 mm 0.00 in0.0 mm
10:08 AM 42.3°F5.7°C 22.8°F-5.1°C 46% 4.0 mph NW6.4 kmh NW -- 30.59 in1035.9 mb 0.00 in0.0 mm 0.00 in0.0 mm 0.00 in0.0 mm
10:13 AM 43.0°F6.1°C 22.4°F-5.3°C 44% 6.0 mph NW9.7 kmh NW -- 30.59 in1035.9 mb 0.00 in0.0 mm 0.00 in0.0 mm 0.00 in0.0 mm
10:18 AM 43.4°F6.3°C 23.2°F-4.9°C 45% 3.0 mph NE4.8 kmh NE -- 30.59 in1035.9 mb 0.00 in0.0 mm 0.00 in0.0 mm 0.00 in0.0 mm
10:22 AM 44.0°F6.7°C 22.8°F-5.1°C 43% 4.0 mph NW6.4 kmh NW -- 30.59 in1035.9 mb 0.00 in0.0 mm 0.00 in0.0 mm 0.00 in0.0 mm
10:28 AM 44.8°F7.1°C 23.4°F-4.8°C 43% 3.0 mph NW4.8 kmh NW -- 30.59 in1035.9 mb 0.00 in0.0 mm 0.00 in0.0 mm 0.00 in0.0 mm
10:33 AM 45.3°F7.4°C 23.9°F-4.5°C 43% 3.0 mph NNE4.8 kmh NNE -- 30.59 in1035.9 mb 0.00 in0.0 mm 0.00 in0.0 mm 0.00 in0.0 mm
10:37 AM 45.1°F7.3°C 24.3°F-4.3°C 44% 3.0 mph E4.8 kmh E -- 30.59 in1035.9 mb 0.00 in0.0 mm 0.00 in0.0 mm 0.00 in0.0 mm
10:42 AM 45.9°F7.7°C 24.4°F-4.2°C 43% 2.0 mph S3.2 kmh S -- 30.59 in1035.9 mb 0.00 in0.0 mm 0.00 in0.0 mm 0.00 in0.0 mm
10:48 AM 46.2°F7.9°C 24.2°F-4.3°C 42% 2.0 mph SW3.2 kmh SW -- 30.59 in1035.9 mb 0.00 in0.0 mm 0.00 in0.0 mm 0.00 in0.0 mm
10:52 AM 46.5°F8.1°C 24.5°F-4.2°C 42% 2.0 mph ESE3.2 kmh ESE -- 30.59 in1035.9 mb 0.00 in0.0 mm 0.00 in0.0 mm 0.00 in0.0 mm
10:57 AM 46.9°F8.3°C 24.3°F-4.3°C 41% 1.0 mph SE1.6 kmh SE -- 30.58 in1035.6 mb 0.00 in0.0 mm 0.00 in0.0 mm 0.00 in0.0 mm
11:03 AM 47.4°F8.6°C 25.3°F-3.7°C 42% 2.0 mph SW3.2 kmh SW -- 30.58 in1035.6 mb 0.00 in0.0 mm 0.00 in0.0 mm 0.00 in0.0 mm
11:07 AM 47.8°F8.8°C 25.1°F-3.8°C 41% 2.0 mph NW3.2 kmh NW -- 30.59 in1035.9 mb 0.00 in0.0 mm 0.00 in0.0 mm 0.00 in0.0 mm
11:12 AM 47.6°F8.7°C 24.3°F-4.3°C 40% 2.0 mph NE3.2 kmh NE -- 30.58 in1035.6 mb 0.00 in0.0 mm 0.00 in0.0 mm 0.00 in0.0 mm
11:21 AM 48.9°F9.4°C 24.2°F-4.3°C 38% 3.0 mph WSW4.8 kmh WSW -- 30.58 in1035.6 mb 0.00 in0.0 mm 0.00 in0.0 mm 0.00 in0.0 mm
11:22 AM 49.0°F9.4°C 24.2°F-4.3°C 38% 1.0 mph SSW1.6 kmh SSW -- 30.58 in1035.6 mb 0.00 in0.0 mm 0.00 in0.0 mm 0.00 in0.0 mm
11:27 AM 49.3°F9.6°C 25.8°F-3.4°C 40% 3.0 mph NW4.8 kmh NW -- 30.58 in1035.6 mb 0.00 in0.0 mm 0.00 in0.0 mm 0.00 in0.0 mm
11:33 AM 49.3°F9.6°C 23.9°F-4.5°C 37% 4.0 mph NNE6.4 kmh NNE -- 30.58 in1035.6 mb 0.00 in0.0 mm 0.00 in0.0 mm 0.00 in0.0 mm
11:37 AM 49.9°F9.9°C 24.4°F-4.2°C 37% 2.0 mph WNW3.2 kmh WNW -- 30.58 in1035.6 mb 0.00 in0.0 mm 0.00 in0.0 mm 0.00 in0.0 mm
11:42 AM 50.4°F10.2°C 24.9°F-3.9°C 37% 3.0 mph NE4.8 kmh NE -- 30.57 in1035.2 mb 0.00 in0.0 mm 0.00 in0.0 mm 0.00 in0.0 mm
11:48 AM 50.9°F10.5°C 23.3°F-4.8°C 34% 2.0 mph NE3.2 kmh NE -- 30.57 in1035.2 mb 0.00 in0.0 mm 0.00 in0.0 mm 0.00 in0.0 mm
11:52 AM 51.1°F10.6°C 24.2°F-4.3°C 35% 2.0 mph ESE3.2 kmh ESE -- 30.57 in1035.2 mb 0.00 in0.0 mm 0.00 in0.0 mm 0.00 in0.0 mm
11:57 AM 51.9°F11.1°C 24.3°F-4.3°C 34% 2.0 mph E3.2 kmh E -- 30.57 in1035.2 mb 0.00 in0.0 mm 0.00 in0.0 mm 0.00 in0.0 mm
12:02 PM 52.8°F11.6°C 25.1°F-3.8°C 34% 2.0 mph SE3.2 kmh SE -- 30.57 in1035.2 mb 0.00 in0.0 mm 0.00 in0.0 mm 0.00 in0.0 mm
12:07 PM 52.4°F11.3°C 25.3°F-3.7°C 35% 3.0 mph ENE4.8 kmh ENE -- 30.56 in1034.9 mb 0.00 in0.0 mm 0.00 in0.0 mm 0.00 in0.0 mm
12:13 PM 52.1°F11.2°C 25.1°F-3.8°C 35% 2.0 mph NE3.2 kmh NE -- 30.56 in1034.9 mb 0.00 in0.0 mm 0.00 in0.0 mm 0.00 in0.0 mm
12:17 PM 52.9°F11.6°C 24.4°F-4.2°C 33% 2.0 mph SE3.2 kmh SE -- 30.56 in1034.9 mb 0.00 in0.0 mm 0.00 in0.0 mm 0.00 in0.0 mm
12:23 PM 52.8°F11.6°C 25.1°F-3.8°C 34% 4.0 mph NNE6.4 kmh NNE -- 30.56 in1034.9 mb 0.00 in0.0 mm 0.00 in0.0 mm 0.00 in0.0 mm
12:28 PM 52.3°F11.3°C 26.0°F-3.3°C 36% 3.0 mph ESE4.8 kmh ESE -- 30.56 in1034.9 mb 0.00 in0.0 mm 0.00 in0.0 mm 0.00 in0.0 mm
12:32 PM 53.0°F11.7°C 25.2°F-3.8°C 34% 2.0 mph E3.2 kmh E -- 30.56 in1034.9 mb 0.00 in0.0 mm 0.00 in0.0 mm 0.00 in0.0 mm
12:37 PM 52.8°F11.6°C 24.4°F-4.2°C 33% 2.0 mph NNW3.2 kmh NNW -- 30.56 in1034.9 mb 0.00 in0.0 mm 0.00 in0.0 mm 0.00 in0.0 mm
12:43 PM 53.5°F11.9°C 25.6°F-3.6°C 34% 4.0 mph E6.4 kmh E -- 30.55 in1034.5 mb 0.00 in0.0 mm 0.00 in0.0 mm 0.00 in0.0 mm
12:48 PM 53.0°F11.7°C 24.5°F-4.2°C 33% Calm Calm -- 30.55 in1034.5 mb 0.00 in0.0 mm 0.00 in0.0 mm 0.00 in0.0 mm
12:53 PM 54.4°F12.4°C 25.6°F-3.6°C 33% 2.0 mph ENE3.2 kmh ENE -- 30.55 in1034.5 mb 0.00 in0.0 mm 0.00 in0.0 mm 0.00 in0.0 mm
12:57 PM 53.4°F11.9°C 25.6°F-3.6°C 34% 2.0 mph ENE3.2 kmh ENE -- 30.55 in1034.5 mb 0.00 in0.0 mm 0.00 in0.0 mm 0.00 in0.0 mm
12:58 PM 53.4°F11.9°C 25.6°F-3.6°C 34% 4.0 mph NE6.4 kmh NE -- 30.55 in1034.5 mb 0.00 in0.0 mm 0.00 in0.0 mm 0.00 in0.0 mm
01:03 PM 53.2°F11.8°C 25.4°F-3.7°C 34% 3.0 mph NNE4.8 kmh NNE -- 30.54 in1034.2 mb 0.00 in0.0 mm 0.00 in0.0 mm 0.00 in0.0 mm
01:08 PM 53.8°F12.1°C 27.3°F-2.6°C 36% 2.0 mph E3.2 kmh E -- 30.54 in1034.2 mb 0.00 in0.0 mm 0.00 in0.0 mm 0.00 in0.0 mm
01:13 PM 53.5°F11.9°C 24.8°F-4.0°C 33% 1.0 mph N1.6 kmh N -- 30.54 in1034.2 mb 0.00 in0.0 mm 0.00 in0.0 mm 0.00 in0.0 mm
01:17 PM 53.3°F11.8°C 24.7°F-4.1°C 33% 3.0 mph W4.8 kmh W -- 30.54 in1034.2 mb 0.00 in0.0 mm 0.00 in0.0 mm 0.00 in0.0 mm
01:22 PM 54.1°F12.3°C 25.5°F-3.6°C 33% 4.0 mph ENE6.4 kmh ENE -- 30.53 in1033.9 mb 0.00 in0.0 mm 0.00 in0.0 mm 0.00 in0.0 mm
01:28 PM 54.6°F12.6°C 26.7°F-2.9°C 34% 3.0 mph N4.8 kmh N -- 30.54 in1034.2 mb 0.00 in0.0 mm 0.00 in0.0 mm 0.00 in0.0 mm
01:32 PM 54.4°F12.4°C 27.1°F-2.7°C 35% 2.0 mph NE3.2 kmh NE -- 30.54 in1034.2 mb 0.00 in0.0 mm 0.00 in0.0 mm 0.00 in0.0 mm
01:37 PM 54.9°F12.7°C 25.4°F-3.7°C 32% 3.0 mph E4.8 kmh E -- 30.53 in1033.9 mb 0.00 in0.0 mm 0.00 in0.0 mm 0.00 in0.0 mm
01:43 PM 53.9°F12.2°C 26.0°F-3.3°C 34% 3.0 mph N4.8 kmh N -- 30.53 in1033.9 mb 0.00 in0.0 mm 0.00 in0.0 mm 0.00 in0.0 mm
01:47 PM 54.7°F12.6°C 25.2°F-3.8°C 32% 3.0 mph SW4.8 kmh SW -- 30.53 in1033.9 mb 0.00 in0.0 mm 0.00 in0.0 mm 0.00 in0.0 mm
01:52 PM 54.7°F12.6°C 25.9°F-3.4°C 33% 4.0 mph NNE6.4 kmh NNE -- 30.53 in1033.9 mb 0.00 in0.0 mm 0.00 in0.0 mm 0.00 in0.0 mm
01:57 PM 54.1°F12.3°C 25.5°F-3.6°C 33% 4.0 mph WNW6.4 kmh WNW -- 30.54 in1034.2 mb 0.00 in0.0 mm 0.00 in0.0 mm 0.00 in0.0 mm
02:02 PM 54.5°F12.5°C 25.8°F-3.4°C 33% 3.0 mph ESE4.8 kmh ESE -- 30.54 in1034.2 mb 0.00 in0.0 mm 0.00 in0.0 mm 0.00 in0.0 mm
02:08 PM 54.5°F12.5°C 25.8°F-3.4°C 33% 2.0 mph ESE3.2 kmh ESE -- 30.53 in1033.9 mb 0.00 in0.0 mm 0.00 in0.0 mm 0.00 in0.0 mm
02:12 PM 54.2°F12.3°C 25.5°F-3.6°C 33% 2.0 mph SSE3.2 kmh SSE -- 30.53 in1033.9 mb 0.00 in0.0 mm 0.00 in0.0 mm 0.00 in0.0 mm
02:18 PM 54.1°F12.3°C 26.2°F-3.2°C 34% 4.0 mph NNE6.4 kmh NNE -- 30.53 in1033.9 mb 0.00 in0.0 mm 0.00 in0.0 mm 0.00 in0.0 mm
02:23 PM 54.7°F12.6°C 25.9°F-3.4°C 33% 2.0 mph SE3.2 kmh SE -- 30.53 in1033.9 mb 0.00 in0.0 mm 0.00 in0.0 mm 0.00 in0.0 mm
02:27 PM 54.8°F12.7°C 26.1°F-3.3°C 33% 4.0 mph NNE6.4 kmh NNE -- 30.53 in1033.9 mb 0.00 in0.0 mm 0.00 in0.0 mm 0.00 in0.0 mm
02:32 PM 55.0°F12.8°C 25.5°F-3.6°C 32% 2.0 mph SSE3.2 kmh SSE -- 30.53 in1033.9 mb 0.00 in0.0 mm 0.00 in0.0 mm 0.00 in0.0 mm
02:38 PM 55.0°F12.8°C 26.3°F-3.2°C 33% 3.0 mph NE4.8 kmh NE -- 30.53 in1033.9 mb 0.00 in0.0 mm 0.00 in0.0 mm 0.00 in0.0 mm
02:43 PM 54.7°F12.6°C 24.4°F-4.2°C 31% 4.0 mph N6.4 kmh N -- 30.53 in1033.9 mb 0.00 in0.0 mm 0.00 in0.0 mm 0.00 in0.0 mm
02:48 PM 54.6°F12.6°C 24.4°F-4.2°C 31% 2.0 mph NW3.2 kmh NW -- 30.53 in1033.9 mb 0.00 in0.0 mm 0.00 in0.0 mm 0.00 in0.0 mm
02:52 PM 54.4°F12.4°C 24.9°F-3.9°C 32% 2.0 mph ESE3.2 kmh ESE -- 30.53 in1033.9 mb 0.00 in0.0 mm 0.00 in0.0 mm 0.00 in0.0 mm
02:58 PM 54.4°F12.4°C 24.9°F-3.9°C 32% 3.0 mph N4.8 kmh N -- 30.53 in1033.9 mb 0.00 in0.0 mm 0.00 in0.0 mm 0.00 in0.0 mm
03:03 PM 54.2°F12.3°C 24.0°F-4.4°C 31% 3.0 mph NE4.8 kmh NE -- 30.53 in1033.9 mb 0.00 in0.0 mm 0.00 in0.0 mm 0.00 in0.0 mm
03:07 PM 54.4°F12.4°C 24.9°F-3.9°C 32% 4.0 mph SE6.4 kmh SE -- 30.53 in1033.9 mb 0.00 in0.0 mm 0.00 in0.0 mm 0.00 in0.0 mm
03:12 PM 54.4°F12.4°C 24.1°F-4.4°C 31% 2.0 mph ENE3.2 kmh ENE -- 30.53 in1033.9 mb 0.00 in0.0 mm 0.00 in0.0 mm 0.00 in0.0 mm
03:17 PM 54.5°F12.5°C 23.5°F-4.7°C 30% 1.0 mph SE1.6 kmh SE -- 30.53 in1033.9 mb 0.00 in0.0 mm 0.00 in0.0 mm 0.00 in0.0 mm
03:23 PM 54.4°F12.4°C 24.9°F-3.9°C 32% 2.0 mph NE3.2 kmh NE -- 30.53 in1033.9 mb 0.00 in0.0 mm 0.00 in0.0 mm 0.00 in0.0 mm
03:27 PM 54.2°F12.3°C 25.5°F-3.6°C 33% 2.0 mph E3.2 kmh E -- 30.54 in1034.2 mb 0.00 in0.0 mm 0.00 in0.0 mm 0.00 in0.0 mm
03:32 PM 54.0°F12.2°C 23.8°F-4.6°C 31% 3.0 mph NNE4.8 kmh NNE -- 30.54 in1034.2 mb 0.00 in0.0 mm 0.00 in0.0 mm 0.00 in0.0 mm
03:38 PM 54.0°F12.2°C 25.3°F-3.7°C 33% 1.0 mph NE1.6 kmh NE -- 30.54 in1034.2 mb 0.00 in0.0 mm 0.00 in0.0 mm 0.00 in0.0 mm
03:42 PM 54.0°F12.2°C 26.0°F-3.3°C 34% Calm Calm -- 30.54 in1034.2 mb 0.00 in0.0 mm 0.00 in0.0 mm 0.00 in0.0 mm
03:47 PM 53.9°F12.2°C 25.3°F-3.7°C 33% 2.0 mph ESE3.2 kmh ESE -- 30.54 in1034.2 mb 0.00 in0.0 mm 0.00 in0.0 mm 0.00 in0.0 mm
03:52 PM 53.8°F12.1°C 24.4°F-4.2°C 32% 2.0 mph NE3.2 kmh NE -- 30.54 in1034.2 mb 0.00 in0.0 mm 0.00 in0.0 mm 0.00 in0.0 mm
03:57 PM 53.8°F12.1°C 24.4°F-4.2°C 32% 2.0 mph SE3.2 kmh SE -- 30.54 in1034.2 mb 0.00 in0.0 mm 0.00 in0.0 mm 0.00 in0.0 mm
04:03 PM 53.7°F12.1°C 25.2°F-3.8°C 33% 2.0 mph ENE3.2 kmh ENE -- 30.54 in1034.2 mb 0.00 in0.0 mm 0.00 in0.0 mm 0.00 in0.0 mm
04:07 PM 53.3°F11.8°C 25.4°F-3.7°C 34% 2.0 mph NNW3.2 kmh NNW -- 30.55 in1034.5 mb 0.00 in0.0 mm 0.00 in0.0 mm 0.00 in0.0 mm
04:12 PM 53.0°F11.7°C 24.5°F-4.2°C 33% Calm Calm -- 30.55 in1034.5 mb 0.00 in0.0 mm 0.00 in0.0 mm 0.00 in0.0 mm
04:18 PM 52.3°F11.3°C 23.9°F-4.5°C 33% Calm Calm -- 30.56 in1034.9 mb 0.00 in0.0 mm 0.00 in0.0 mm 0.00 in0.0 mm
04:22 PM 51.9°F11.1°C 24.3°F-4.3°C 34% Calm Calm -- 30.55 in1034.5 mb 0.00 in0.0 mm 0.00 in0.0 mm 0.00 in0.0 mm
04:28 PM 51.5°F10.8°C 24.5°F-4.2°C 35% Calm Calm -- 30.56 in1034.9 mb 0.00 in0.0 mm 0.00 in0.0 mm 0.00 in0.0 mm
04:33 PM 51.2°F10.7°C 25.0°F-3.9°C 36% Calm Calm -- 30.56 in1034.9 mb 0.00 in0.0 mm 0.00 in0.0 mm 0.00 in0.0 mm
04:37 PM 50.8°F10.4°C 24.5°F-4.2°C 36% Calm Calm -- 30.56 in1034.9 mb 0.00 in0.0 mm 0.00 in0.0 mm 0.00 in0.0 mm
04:42 PM 50.6°F10.3°C 24.4°F-4.2°C 36% 2.0 mph ESE3.2 kmh ESE -- 30.56 in1034.9 mb 0.00 in0.0 mm 0.00 in0.0 mm 0.00 in0.0 mm
04:48 PM 50.4°F10.2°C 24.2°F-4.3°C 36% Calm Calm -- 30.56 in1034.9 mb 0.00 in0.0 mm 0.00 in0.0 mm 0.00 in0.0 mm
04:53 PM 50.3°F10.2°C 24.9°F-3.9°C 37% 1.0 mph ESE1.6 kmh ESE -- 30.56 in1034.9 mb 0.00 in0.0 mm 0.00 in0.0 mm 0.00 in0.0 mm
04:57 PM 50.3°F10.2°C 24.9°F-3.9°C 37% 2.0 mph ESE3.2 kmh ESE -- 30.56 in1034.9 mb 0.00 in0.0 mm 0.00 in0.0 mm 0.00 in0.0 mm
05:02 PM 50.1°F10.1°C 25.3°F-3.7°C 38% 2.0 mph E3.2 kmh E -- 30.56 in1034.9 mb 0.00 in0.0 mm 0.00 in0.0 mm 0.00 in0.0 mm
05:08 PM 49.8°F9.9°C 25.0°F-3.9°C 38% 2.0 mph E3.2 kmh E -- 30.56 in1034.9 mb 0.00 in0.0 mm 0.00 in0.0 mm 0.00 in0.0 mm
05:13 PM 49.6°F9.8°C 25.5°F-3.6°C 39% Calm Calm -- 30.56 in1034.9 mb 0.00 in0.0 mm 0.00 in0.0 mm 0.00 in0.0 mm
05:17 PM 49.2°F9.6°C 25.2°F-3.8°C 39% 2.0 mph E3.2 kmh E -- 30.56 in1034.9 mb 0.00 in0.0 mm 0.00 in0.0 mm 0.00 in0.0 mm
05:22 PM 48.9°F9.4°C 25.5°F-3.6°C 40% 2.0 mph SE3.2 kmh SE -- 30.55 in1034.5 mb 0.00 in0.0 mm 0.00 in0.0 mm 0.00 in0.0 mm
05:27 PM 48.7°F9.3°C 25.3°F-3.7°C 40% 3.0 mph ESE4.8 kmh ESE -- 30.56 in1034.9 mb 0.00 in0.0 mm 0.00 in0.0 mm 0.00 in0.0 mm
05:33 PM 48.5°F9.2°C 25.1°F-3.8°C 40% 2.0 mph ESE3.2 kmh ESE -- 30.56 in1034.9 mb 0.00 in0.0 mm 0.00 in0.0 mm 0.00 in0.0 mm
05:37 PM 48.4°F9.1°C 25.0°F-3.9°C 40% 4.0 mph E6.4 kmh E -- 30.55 in1034.5 mb 0.00 in0.0 mm 0.00 in0.0 mm 0.00 in0.0 mm
05:43 PM 48.5°F9.2°C 25.1°F-3.8°C 40% 2.0 mph ESE3.2 kmh ESE -- 30.55 in1034.5 mb 0.00 in0.0 mm 0.00 in0.0 mm 0.00 in0.0 mm
05:48 PM 48.5°F9.2°C 24.5°F-4.2°C 39% 2.0 mph SE3.2 kmh SE -- 30.55 in1034.5 mb 0.00 in0.0 mm 0.00 in0.0 mm 0.00 in0.0 mm
05:52 PM 48.4°F9.1°C 24.4°F-4.2°C 39% 2.0 mph E3.2 kmh E -- 30.55 in1034.5 mb 0.00 in0.0 mm 0.00 in0.0 mm 0.00 in0.0 mm
05:57 PM 48.2°F9.0°C 24.8°F-4.0°C 40% Calm Calm -- 30.55 in1034.5 mb 0.00 in0.0 mm 0.00 in0.0 mm 0.00 in0.0 mm
06:03 PM 47.9°F8.8°C 24.5°F-4.2°C 40% Calm Calm -- 30.56 in1034.9 mb 0.00 in0.0 mm 0.00 in0.0 mm 0.00 in0.0 mm
06:07 PM 47.6°F8.7°C 24.9°F-3.9°C 41% 2.0 mph ESE3.2 kmh ESE -- 30.56 in1034.9 mb 0.00 in0.0 mm 0.00 in0.0 mm 0.00 in0.0 mm
06:13 PM 47.3°F8.5°C 24.6°F-4.1°C 41% 4.0 mph ESE6.4 kmh ESE -- 30.56 in1034.9 mb 0.00 in0.0 mm 0.00 in0.0 mm 0.00 in0.0 mm
06:17 PM 47.1°F8.4°C 24.4°F-4.2°C 41% 2.0 mph ESE3.2 kmh ESE -- 30.56 in1034.9 mb 0.00 in0.0 mm 0.00 in0.0 mm 0.00 in0.0 mm
06:23 PM 46.9°F8.3°C 24.8°F-4.0°C 42% 3.0 mph SE4.8 kmh SE -- 30.56 in1034.9 mb 0.00 in0.0 mm 0.00 in0.0 mm 0.00 in0.0 mm
06:28 PM 46.7°F8.2°C 24.7°F-4.1°C 42% 1.0 mph SE1.6 kmh SE -- 30.56 in1034.9 mb 0.00 in0.0 mm 0.00 in0.0 mm 0.00 in0.0 mm
06:32 PM 46.4°F8.0°C 24.9°F-3.9°C 43% Calm Calm -- 30.56 in1034.9 mb 0.00 in0.0 mm 0.00 in0.0 mm 0.00 in0.0 mm
06:37 PM 46.0°F7.8°C 24.6°F-4.1°C 43% 2.0 mph SE3.2 kmh SE -- 30.56 in1034.9 mb 0.00 in0.0 mm 0.00 in0.0 mm 0.00 in0.0 mm
06:43 PM 45.8°F7.7°C 24.4°F-4.2°C 43% 1.0 mph SE1.6 kmh SE -- 30.57 in1035.2 mb 0.00 in0.0 mm 0.00 in0.0 mm 0.00 in0.0 mm
06:48 PM 45.7°F7.6°C 24.3°F-4.3°C 43% 1.0 mph SSE1.6 kmh SSE -- 30.57 in1035.2 mb 0.00 in0.0 mm 0.00 in0.0 mm 0.00 in0.0 mm
06:52 PM 45.6°F7.6°C 24.3°F-4.3°C 43% 3.0 mph ESE4.8 kmh ESE -- 30.58 in1035.6 mb 0.00 in0.0 mm 0.00 in0.0 mm 0.00 in0.0 mm
06:57 PM 45.3°F7.4°C 24.5°F-4.2°C 44% 1.0 mph SE1.6 kmh SE -- 30.58 in1035.6 mb 0.00 in0.0 mm 0.00 in0.0 mm 0.00 in0.0 mm
07:03 PM 45.1°F7.3°C 24.3°F-4.3°C 44% 2.0 mph ESE3.2 kmh ESE -- 30.58 in1035.6 mb 0.00 in0.0 mm 0.00 in0.0 mm 0.00 in0.0 mm
07:08 PM 45.2°F7.3°C 24.3°F-4.3°C 44% 4.0 mph E6.4 kmh E -- 30.58 in1035.6 mb 0.00 in0.0 mm 0.00 in0.0 mm 0.00 in0.0 mm
07:12 PM 45.3°F7.4°C 24.5°F-4.2°C 44% 5.0 mph ENE8.0 kmh ENE -- 30.58 in1035.6 mb 0.00 in0.0 mm 0.00 in0.0 mm 0.00 in0.0 mm
07:18 PM 45.5°F7.5°C 24.7°F-4.1°C 44% 2.0 mph E3.2 kmh E -- 30.58 in1035.6 mb 0.00 in0.0 mm 0.00 in0.0 mm 0.00 in0.0 mm
07:22 PM 45.5°F7.5°C 24.7°F-4.1°C 44% 5.0 mph E8.0 kmh E -- 30.58 in1035.6 mb 0.00 in0.0 mm 0.00 in0.0 mm 0.00 in0.0 mm
07:28 PM 45.6°F7.6°C 25.4°F-3.7°C 45% 4.0 mph NE6.4 kmh NE -- 30.58 in1035.6 mb 0.00 in0.0 mm 0.00 in0.0 mm 0.00 in0.0 mm
07:32 PM 45.4°F7.4°C 24.5°F-4.2°C 44% 6.0 mph ESE9.7 kmh ESE -- 30.58 in1035.6 mb 0.00 in0.0 mm 0.00 in0.0 mm 0.00 in0.0 mm
07:37 PM 45.1°F7.3°C 24.9°F-3.9°C 45% 2.0 mph E3.2 kmh E -- 30.58 in1035.6 mb 0.00 in0.0 mm 0.00 in0.0 mm 0.00 in0.0 mm
07:43 PM 44.8°F7.1°C 25.1°F-3.8°C 46% 5.0 mph E8.0 kmh E -- 30.58 in1035.6 mb 0.00 in0.0 mm 0.00 in0.0 mm 0.00 in0.0 mm
07:48 PM 44.5°F6.9°C 25.3°F-3.7°C 47% 3.0 mph E4.8 kmh E -- 30.58 in1035.6 mb 0.00 in0.0 mm 0.00 in0.0 mm 0.00 in0.0 mm
07:52 PM 44.3°F6.8°C 25.1°F-3.8°C 47% 6.0 mph E9.7 kmh E -- 30.58 in1035.6 mb 0.00 in0.0 mm 0.00 in0.0 mm 0.00 in0.0 mm
07:57 PM 43.9°F6.6°C 25.3°F-3.7°C 48% 2.0 mph ESE3.2 kmh ESE -- 30.59 in1035.9 mb 0.00 in0.0 mm 0.00 in0.0 mm 0.00 in0.0 mm
08:02 PM 43.6°F6.4°C 25.4°F-3.7°C 49% 4.0 mph SE6.4 kmh SE -- 30.59 in1035.9 mb 0.00 in0.0 mm 0.00 in0.0 mm 0.00 in0.0 mm
08:08 PM 43.5°F6.4°C 25.9°F-3.4°C 50% 4.0 mph E6.4 kmh E -- 30.59 in1035.9 mb 0.00 in0.0 mm 0.00 in0.0 mm 0.00 in0.0 mm
08:12 PM 43.0°F6.1°C 24.9°F-3.9°C 49% 5.0 mph SW8.0 kmh SW -- 30.59 in1035.9 mb 0.00 in0.0 mm 0.00 in0.0 mm 0.00 in0.0 mm
08:17 PM 42.9°F6.1°C 25.4°F-3.7°C 50% 1.0 mph SE1.6 kmh SE -- 30.60 in1036.2 mb 0.00 in0.0 mm 0.00 in0.0 mm 0.00 in0.0 mm
08:23 PM 42.6°F5.9°C 25.1°F-3.8°C 50% 3.0 mph E4.8 kmh E -- 30.59 in1035.9 mb 0.00 in0.0 mm 0.00 in0.0 mm 0.00 in0.0 mm
08:27 PM 42.3°F5.7°C 25.2°F-3.8°C 51% Calm Calm -- 30.60 in1036.2 mb 0.00 in0.0 mm 0.00 in0.0 mm 0.00 in0.0 mm
08:32 PM 42.1°F5.6°C 25.1°F-3.8°C 51% 1.0 mph SE1.6 kmh SE -- 30.60 in1036.2 mb 0.00 in0.0 mm 0.00 in0.0 mm 0.00 in0.0 mm
08:38 PM 41.9°F5.5°C 25.4°F-3.7°C 52% Calm Calm -- 30.60 in1036.2 mb 0.00 in0.0 mm 0.00 in0.0 mm 0.00 in0.0 mm
08:42 PM 41.7°F5.4°C 25.2°F-3.8°C 52% Calm Calm -- 30.60 in1036.2 mb 0.00 in0.0 mm 0.00 in0.0 mm 0.00 in0.0 mm
08:48 PM 41.3°F5.2°C 24.9°F-3.9°C 52% Calm Calm -- 30.60 in1036.2 mb 0.00 in0.0 mm 0.00 in0.0 mm 0.00 in0.0 mm
08:52 PM 41.0°F5.0°C 25.0°F-3.9°C 53% Calm Calm -- 30.61 in1036.6 mb 0.00 in0.0 mm 0.00 in0.0 mm 0.00 in0.0 mm
08:58 PM 40.8°F4.9°C 24.8°F-4.0°C 53% Calm Calm -- 30.61 in1036.6 mb 0.00 in0.0 mm 0.00 in0.0 mm 0.00 in0.0 mm
09:03 PM 40.5°F4.7°C 25.0°F-3.9°C 54% Calm Calm -- 30.62 in1036.9 mb 0.00 in0.0 mm 0.00 in0.0 mm 0.00 in0.0 mm
09:07 PM 40.1°F4.5°C 24.6°F-4.1°C 54% Calm Calm -- 30.62 in1036.9 mb 0.00 in0.0 mm 0.00 in0.0 mm 0.00 in0.0 mm
09:12 PM 39.8°F4.3°C 24.7°F-4.1°C 55% Calm Calm -- 30.62 in1036.9 mb 0.00 in0.0 mm 0.00 in0.0 mm 0.00 in0.0 mm
09:18 PM 39.5°F4.2°C 24.6°F-4.1°C 55% Calm Calm -- 30.62 in1036.9 mb 0.00 in0.0 mm 0.00 in0.0 mm 0.00 in0.0 mm
09:23 PM 39.2°F4.0°C 24.7°F-4.1°C 56% Calm Calm -- 30.62 in1036.9 mb 0.00 in0.0 mm 0.00 in0.0 mm 0.00 in0.0 mm
09:27 PM 39.0°F3.9°C 24.5°F-4.2°C 56% 1.0 mph SE1.6 kmh SE -- 30.62 in1036.9 mb 0.00 in0.0 mm 0.00 in0.0 mm 0.00 in0.0 mm
09:32 PM 38.7°F3.7°C 24.6°F-4.1°C 57% Calm Calm -- 30.62 in1036.9 mb 0.00 in0.0 mm 0.00 in0.0 mm 0.00 in0.0 mm
09:38 PM 38.5°F3.6°C 24.4°F-4.2°C 57% 1.0 mph SE1.6 kmh SE -- 30.62 in1036.9 mb 0.00 in0.0 mm 0.00 in0.0 mm 0.00 in0.0 mm
09:43 PM 38.2°F3.4°C 24.5°F-4.2°C 58% Calm Calm -- 30.62 in1036.9 mb 0.00 in0.0 mm 0.00 in0.0 mm 0.00 in0.0 mm
09:47 PM 38.0°F3.3°C 24.7°F-4.1°C 59% 1.0 mph SE1.6 kmh SE -- 30.62 in1036.9 mb 0.00 in0.0 mm 0.00 in0.0 mm 0.00 in0.0 mm
09:52 PM 37.9°F3.3°C 24.7°F-4.1°C 59% Calm Calm -- 30.62 in1036.9 mb 0.00 in0.0 mm 0.00 in0.0 mm 0.00 in0.0 mm
09:57 PM 37.8°F3.2°C 24.6°F-4.1°C 59% 2.0 mph ENE3.2 kmh ENE -- 30.62 in1036.9 mb 0.00 in0.0 mm 0.00 in0.0 mm 0.00 in0.0 mm
10:03 PM 38.0°F3.3°C 24.7°F-4.1°C 59% 2.0 mph ENE3.2 kmh ENE -- 30.62 in1036.9 mb 0.00 in0.0 mm 0.00 in0.0 mm 0.00 in0.0 mm
10:07 PM 38.1°F3.4°C 24.9°F-3.9°C 59% 2.0 mph E3.2 kmh E -- 30.62 in1036.9 mb 0.00 in0.0 mm 0.00 in0.0 mm 0.00 in0.0 mm
10:12 PM 38.2°F3.4°C 24.5°F-4.2°C 58% 1.0 mph E1.6 kmh E -- 30.62 in1036.9 mb 0.00 in0.0 mm 0.00 in0.0 mm 0.00 in0.0 mm
10:18 PM 38.4°F3.6°C 24.8°F-4.0°C 58% 1.0 mph SE1.6 kmh SE -- 30.62 in1036.9 mb 0.00 in0.0 mm 0.00 in0.0 mm 0.00 in0.0 mm
10:22 PM 38.6°F3.7°C 25.0°F-3.9°C 58% 2.0 mph SE3.2 kmh SE -- 30.62 in1036.9 mb 0.00 in0.0 mm 0.00 in0.0 mm 0.00 in0.0 mm
10:27 PM 38.7°F3.7°C 24.6°F-4.1°C 57% 1.0 mph SE1.6 kmh SE -- 30.62 in1036.9 mb 0.00 in0.0 mm 0.00 in0.0 mm 0.00 in0.0 mm
10:33 PM 38.7°F3.7°C 24.6°F-4.1°C 57% 2.0 mph SE3.2 kmh SE -- 30.61 in1036.6 mb 0.00 in0.0 mm 0.00 in0.0 mm 0.00 in0.0 mm
10:37 PM 38.7°F3.7°C 25.0°F-3.9°C 58% Calm Calm -- 30.62 in1036.9 mb 0.00 in0.0 mm 0.00 in0.0 mm 0.00 in0.0 mm
10:42 PM 38.4°F3.6°C 24.8°F-4.0°C 58% Calm Calm -- 30.62 in1036.9 mb 0.00 in0.0 mm 0.00 in0.0 mm 0.00 in0.0 mm
10:47 PM 38.3°F3.5°C 24.7°F-4.1°C 58% Calm Calm -- 30.63 in1037.3 mb 0.00 in0.0 mm 0.00 in0.0 mm 0.00 in0.0 mm
10:53 PM 38.0°F3.3°C 25.5°F-3.6°C 61% Calm Calm -- 30.63 in1037.3 mb 0.00 in0.0 mm 0.00 in0.0 mm 0.00 in0.0 mm
10:58 PM 37.5°F3.1°C 25.6°F-3.6°C 62% Calm Calm -- 30.63 in1037.3 mb 0.00 in0.0 mm 0.00 in0.0 mm 0.00 in0.0 mm
11:02 PM 37.2°F2.9°C 24.9°F-3.9°C 61% Calm Calm -- 30.63 in1037.3 mb 0.00 in0.0 mm 0.00 in0.0 mm 0.00 in0.0 mm
11:07 PM 36.9°F2.7°C 24.5°F-4.2°C 61% Calm Calm -- 30.63 in1037.3 mb 0.00 in0.0 mm 0.00 in0.0 mm 0.00 in0.0 mm
11:13 PM 36.6°F2.6°C 24.7°F-4.1°C 62% Calm Calm -- 30.64 in1037.6 mb 0.00 in0.0 mm 0.00 in0.0 mm 0.00 in0.0 mm
11:18 PM 36.6°F2.6°C 25.1°F-3.8°C 63% Calm Calm -- 30.64 in1037.6 mb 0.00 in0.0 mm 0.00 in0.0 mm 0.00 in0.0 mm
11:22 PM 36.5°F2.5°C 25.0°F-3.9°C 63% 1.0 mph ESE1.6 kmh ESE -- 30.63 in1037.3 mb 0.00 in0.0 mm 0.00 in0.0 mm 0.00 in0.0 mm
11:27 PM 36.3°F2.4°C 25.5°F-3.6°C 65% 2.0 mph NE3.2 kmh NE -- 30.64 in1037.6 mb 0.00 in0.0 mm 0.00 in0.0 mm 0.00 in0.0 mm
11:33 PM 36.2°F2.3°C 25.4°F-3.7°C 65% 1.0 mph ESE1.6 kmh ESE -- 30.64 in1037.6 mb 0.00 in0.0 mm 0.00 in0.0 mm 0.00 in0.0 mm
11:38 PM 36.0°F2.2°C 25.2°F-3.8°C 65% 1.0 mph SE1.6 kmh SE -- 30.64 in1037.6 mb 0.00 in0.0 mm 0.00 in0.0 mm 0.00 in0.0 mm
11:42 PM 35.9°F2.2°C 25.2°F-3.8°C 65% Calm Calm -- 30.64 in1037.6 mb 0.00 in0.0 mm 0.00 in0.0 mm 0.00 in0.0 mm
11:47 PM 35.8°F2.1°C 25.0°F-3.9°C 65% Calm Calm -- 30.65 in1037.9 mb 0.00 in0.0 mm 0.00 in0.0 mm 0.00 in0.0 mm
11:53 PM 35.6°F2.0°C 25.2°F-3.8°C 66% Calm Calm -- 30.65 in1037.9 mb 0.00 in0.0 mm 0.00 in0.0 mm 0.00 in0.0 mm
11:58 PM 35.4°F1.9°C 25.4°F-3.7°C 67% Calm Calm -- 30.65 in1037.9 mb 0.00 in0.0 mm 0.00 in0.0 mm 0.00 in0.0 mm